Time,TemperatureF,DewpointF,PressureIn,WindDirection,WindDirectionDegrees,WindSpeedMPH,WindSpeedGustMPH,Humidity,HourlyPrecipIn,Conditions,Clouds,dailyrainin,SoftwareType,DateUTC
2013-02-19 00:00:00,30.8,24.8,30.10,WNW,300,4.0,17.0,78,0.00,,,0.16,WeatherCatV1.02B3,2013-02-19 06:00:00,
2013-02-19 00:05:00,30.7,24.7,30.11,WNW,303,10.0,14.0,78,0.00,,,0.00,WeatherCatV1.02B3,2013-02-19 06:05:00,
2013-02-19 00:10:00,30.6,24.6,30.11,NW,310,6.0,9.0,78,0.00,,,0.00,WeatherCatV1.02B3,2013-02-19 06:10:00,
2013-02-19 00:15:00,30.5,24.5,30.11,NW,310,6.0,12.0,78,0.00,,,0.00,WeatherCatV1.02B3,2013-02-19 06:15:00,
2013-02-19 00:20:00,30.3,24.3,30.12,NW,325,6.0,11.0,78,0.00,,,0.00,WeatherCatV1.02B3,2013-02-19 06:20:00,
2013-02-19 00:25:00,30.3,24.0,30.12,NW,326,10.0,15.0,77,0.00,,,0.00,WeatherCatV1.02B3,2013-02-19 06:25:00,
2013-02-19 00:30:00,30.2,23.9,30.12,WNW,302,5.0,8.0,77,0.00,,,0.00,WeatherCatV1.02B3,2013-02-19 06:30:00,
2013-02-19 00:35:00,30.1,23.5,30.12,NW,315,7.0,12.0,76,0.00,,,0.00,WeatherCatV1.02B3,2013-02-19 06:35:00,
2013-02-19 00:40:00,29.9,23.6,30.13,WNW,285,0.0,4.0,77,0.00,,,0.00,WeatherCatV1.02B3,2013-02-19 06:40:00,
2013-02-19 00:45:00,29.8,23.5,30.13,NW,316,3.0,6.0,77,0.00,,,0.00,WeatherCatV1.02B3,2013-02-19 06:45:00,
2013-02-19 00:50:00,29.6,23.6,30.13,NW,322,5.0,7.0,78,0.00,,,0.00,WeatherCatV1.02B3,2013-02-19 06:50:00,
2013-02-19 00:55:00,29.5,23.5,30.14,NNW,344,6.0,9.0,78,0.00,,,0.00,WeatherCatV1.02B3,2013-02-19 06:55:00,
2013-02-19 01:00:00,29.3,23.3,30.14,WSW,243,3.0,10.0,78,0.00,,,0.00,WeatherCatV1.02B3,2013-02-19 07:00:00,
2013-02-19 01:05:00,29.2,22.9,30.14,WNW,303,3.0,13.0,77,0.00,,,0.00,WeatherCatV1.02B3,2013-02-19 07:05:00,
2013-02-19 01:10:00,29.1,22.5,30.14,WNW,289,2.0,5.0,76,0.00,,,0.00,WeatherCatV1.02B3,2013-02-19 07:10:00,
2013-02-19 01:15:00,29.0,22.4,30.14,NW,309,4.0,8.0,76,0.00,,,0.00,WeatherCatV1.02B3,2013-02-19 07:15:00,
2013-02-19 01:20:00,28.9,22.3,30.14,West,275,2.0,5.0,76,0.00,,,0.00,WeatherCatV1.02B3,2013-02-19 07:20:00,
2013-02-19 01:25:00,28.7,22.1,30.14,WNW,285,5.0,12.0,76,0.00,,,0.00,WeatherCatV1.02B3,2013-02-19 07:25:00,
2013-02-19 01:30:00,28.6,22.0,30.15,West,279,3.0,6.0,76,0.00,,,0.00,WeatherCatV1.02B3,2013-02-19 07:30:00,
2013-02-19 01:35:00,28.5,21.9,30.15,WNW,287,2.0,4.0,76,0.00,,,0.00,WeatherCatV1.02B3,2013-02-19 07:35:00,
2013-02-19 01:40:00,28.5,21.6,30.15,NW,304,5.0,8.0,75,0.00,,,0.00,WeatherCatV1.02B3,2013-02-19 07:40:00,
2013-02-19 01:45:00,28.4,21.5,30.15,WNW,298,4.0,6.0,75,0.00,,,0.00,WeatherCatV1.02B3,2013-02-19 07:45:00,
2013-02-19 01:50:00,28.3,21.4,30.15,NW,317,2.0,7.0,75,0.00,,,0.00,WeatherCatV1.02B3,2013-02-19 07:50:00,
2013-02-19 01:55:00,28.1,21.2,30.15,NW,326,2.0,8.0,75,0.00,,,0.00,WeatherCatV1.02B3,2013-02-19 07:55:00,
2013-02-19 02:00:00,28.0,21.4,30.15,NW,313,2.0,4.0,76,0.00,,,0.00,WeatherCatV1.02B3,2013-02-19 08:00:00,
2013-02-19 02:05:00,27.9,21.3,30.15,NW,315,5.0,5.0,76,0.00,,,0.00,WeatherCatV1.02B3,2013-02-19 08:05:00,
2013-02-19 02:10:00,27.8,21.5,30.16,NW,312,3.0,7.0,77,0.00,,,0.00,WeatherCatV1.02B3,2013-02-19 08:10:00,
2013-02-19 02:15:00,27.7,21.4,30.16,NW,317,6.0,7.0,77,0.00,,,0.00,WeatherCatV1.02B3,2013-02-19 08:15:00,
2013-02-19 02:20:00,27.6,21.4,30.16,WNW,302,4.0,7.0,77,0.00,,,0.00,WeatherCatV1.02B3,2013-02-19 08:20:00,
2013-02-19 02:25:00,27.5,21.3,30.16,WNW,294,6.0,10.0,77,0.00,,,0.00,WeatherCatV1.02B3,2013-02-19 08:25:00,
2013-02-19 02:30:00,27.5,21.3,30.16,NNW,328,7.0,8.0,77,0.00,,,0.00,WeatherCatV1.02B3,2013-02-19 08:30:00,
2013-02-19 02:35:00,27.5,21.3,30.16,WNW,292,4.0,6.0,77,0.00,,,0.00,WeatherCatV1.02B3,2013-02-19 08:35:00,
2013-02-19 02:40:00,27.5,20.9,30.16,WNW,298,2.0,6.0,76,0.00,,,0.00,WeatherCatV1.02B3,2013-02-19 08:40:00,
2013-02-19 02:45:00,27.4,21.2,30.16,NW,308,0.0,6.0,77,0.00,,,0.00,WeatherCatV1.02B3,2013-02-19 08:45:00,
2013-02-19 02:50:00,27.4,21.2,30.16,WNW,293,1.0,7.0,77,0.00,,,0.00,WeatherCatV1.02B3,2013-02-19 08:50:00,
2013-02-19 02:55:00,27.2,21.0,30.16,West,281,1.0,6.0,77,0.00,,,0.00,WeatherCatV1.02B3,2013-02-19 08:55:00,
2013-02-19 03:00:00,27.2,21.0,30.16,NW,321,6.0,6.0,77,0.00,,,0.00,WeatherCatV1.02B3,2013-02-19 09:00:00,
2013-02-19 03:05:00,27.1,20.9,30.16,WNW,286,3.0,6.0,77,0.00,,,0.00,WeatherCatV1.02B3,2013-02-19 09:05:00,
2013-02-19 03:10:00,27.0,20.8,30.16,NW,317,3.0,3.0,77,0.00,,,0.00,WeatherCatV1.02B3,2013-02-19 09:10:00,
2013-02-19 03:15:00,26.9,20.7,30.16,West,268,3.0,3.0,77,0.00,,,0.00,WeatherCatV1.02B3,2013-02-19 09:15:00,
2013-02-19 03:20:00,26.8,20.6,30.16,West,275,2.0,8.0,77,0.00,,,0.00,WeatherCatV1.02B3,2013-02-19 09:20:00,
2013-02-19 03:25:00,26.7,20.5,30.16,WNW,284,6.0,8.0,77,0.00,,,0.00,WeatherCatV1.02B3,2013-02-19 09:25:00,
2013-02-19 03:30:00,26.7,20.5,30.16,NNW,332,5.0,8.0,77,0.00,,,0.00,WeatherCatV1.02B3,2013-02-19 09:30:00,
2013-02-19 03:35:00,26.7,20.2,30.16,WNW,296,2.0,5.0,76,0.00,,,0.00,WeatherCatV1.02B3,2013-02-19 09:35:00,
2013-02-19 03:40:00,26.7,20.2,30.16,West,273,4.0,9.0,76,0.00,,,0.00,WeatherCatV1.02B3,2013-02-19 09:40:00,
2013-02-19 03:45:00,26.6,20.1,30.15,WNW,290,2.0,2.0,76,0.00,,,0.00,WeatherCatV1.02B3,2013-02-19 09:45:00,
2013-02-19 03:50:00,26.5,20.0,30.15,NW,317,4.0,5.0,76,0.00,,,0.00,WeatherCatV1.02B3,2013-02-19 09:50:00,
2013-02-19 03:55:00,26.4,19.9,30.15,NW,323,5.0,6.0,76,0.00,,,0.00,WeatherCatV1.02B3,2013-02-19 09:55:00,
2013-02-19 04:00:00,26.3,19.8,30.15,WNW,293,0.0,5.0,76,0.00,,,0.00,WeatherCatV1.02B3,2013-02-19 10:00:00,
2013-02-19 04:05:00,26.2,19.7,30.15,NW,326,1.0,4.0,76,0.00,,,0.00,WeatherCatV1.02B3,2013-02-19 10:05:00,
2013-02-19 04:10:00,26.1,19.6,30.15,West,269,2.0,4.0,76,0.00,,,0.00,WeatherCatV1.02B3,2013-02-19 10:10:00,
2013-02-19 04:15:00,26.0,19.5,30.15,WNW,302,1.0,6.0,76,0.00,,,0.00,WeatherCatV1.02B3,2013-02-19 10:15:00,
2013-02-19 04:20:00,26.0,19.5,30.15,WNW,302,3.0,4.0,76,0.00,,,0.00,WeatherCatV1.02B3,2013-02-19 10:20:00,
2013-02-19 04:25:00,25.9,19.4,30.15,NW,304,2.0,7.0,76,0.00,,,0.00,WeatherCatV1.02B3,2013-02-19 10:25:00,
2013-02-19 04:30:00,25.8,19.3,30.15,NW,305,2.0,7.0,76,0.00,,,0.00,WeatherCatV1.02B3,2013-02-19 10:30:00,
2013-02-19 04:35:00,25.7,19.2,30.15,NW,319,2.0,6.0,76,0.00,,,0.00,WeatherCatV1.02B3,2013-02-19 10:35:00,
2013-02-19 04:40:00,25.7,19.5,30.16,NW,311,3.0,4.0,77,0.00,,,0.00,WeatherCatV1.02B3,2013-02-19 10:40:00,
2013-02-19 04:45:00,25.6,19.4,30.16,NNW,327,0.0,2.0,77,0.00,,,0.00,WeatherCatV1.02B3,2013-02-19 10:45:00,
2013-02-19 04:50:00,25.6,19.4,30.17,WNW,282,0.0,1.0,77,0.00,,,0.00,WeatherCatV1.02B3,2013-02-19 10:50:00,
2013-02-19 04:55:00,25.4,19.2,30.17,WNW,289,1.0,2.0,77,0.00,,,0.00,WeatherCatV1.02B3,2013-02-19 10:55:00,
2013-02-19 05:00:00,25.3,19.4,30.17,NW,319,0.0,3.0,78,0.00,,,0.00,WeatherCatV1.02B3,2013-02-19 11:00:00,
2013-02-19 05:05:00,25.2,19.3,30.17,WNW,294,0.0,0.0,78,0.00,,,0.00,WeatherCatV1.02B3,2013-02-19 11:05:00,
2013-02-19 05:10:00,25.1,19.2,30.18,West,268,0.0,0.0,78,0.00,,,0.00,WeatherCatV1.02B3,2013-02-19 11:10:00,
2013-02-19 05:15:00,24.9,19.3,30.18,West,267,0.0,1.0,79,0.00,,,0.00,WeatherCatV1.02B3,2013-02-19 11:15:00,
2013-02-19 05:20:00,24.8,19.2,30.18,WNW,285,0.0,2.0,79,0.00,,,0.00,WeatherCatV1.02B3,2013-02-19 11:20:00,
2013-02-19 05:25:00,24.6,19.0,30.18,NW,322,0.0,2.0,79,0.00,,,0.00,WeatherCatV1.02B3,2013-02-19 11:25:00,
2013-02-19 05:30:00,24.5,18.9,30.18,NW,321,1.0,3.0,79,0.00,,,0.00,WeatherCatV1.02B3,2013-02-19 11:30:00,
2013-02-19 05:35:00,24.3,18.7,30.18,NW,306,1.0,3.0,79,0.00,,,0.00,WeatherCatV1.02B3,2013-02-19 11:35:00,
2013-02-19 05:40:00,24.2,18.6,30.18,NW,323,1.0,3.0,79,0.00,,,0.00,WeatherCatV1.02B3,2013-02-19 11:40:00,
2013-02-19 05:45:00,24.2,18.6,30.19,NW,311,0.0,0.0,79,0.00,,,0.00,WeatherCatV1.02B3,2013-02-19 11:45:00,
2013-02-19 05:50:00,24.1,18.8,30.19,WNW,291,1.0,1.0,80,0.00,,,0.00,WeatherCatV1.02B3,2013-02-19 11:50:00,
2013-02-19 05:55:00,24.0,19.0,30.20,WSW,254,3.0,3.0,81,0.00,,,0.00,WeatherCatV1.02B3,2013-02-19 11:55:00,
2013-02-19 06:00:00,23.9,18.9,30.20,SW,236,1.0,2.0,81,0.00,,,0.00,WeatherCatV1.02B3,2013-02-19 12:00:00,
2013-02-19 06:05:00,23.8,18.8,30.20,SW,236,0.0,0.0,81,0.00,,,0.00,WeatherCatV1.02B3,2013-02-19 12:05:00,
2013-02-19 06:10:00,23.6,18.6,30.20,SW,236,0.0,0.0,81,0.00,,,0.00,WeatherCatV1.02B3,2013-02-19 12:10:00,
2013-02-19 06:15:00,23.5,18.5,30.20,SW,236,0.0,0.0,81,0.00,,,0.00,WeatherCatV1.02B3,2013-02-19 12:15:00,
2013-02-19 06:20:00,23.4,18.4,30.20,SW,236,0.0,1.0,81,0.00,,,0.00,WeatherCatV1.02B3,2013-02-19 12:20:00,
2013-02-19 06:25:00,23.3,18.3,30.20,SW,236,0.0,0.0,81,0.00,,,0.00,WeatherCatV1.02B3,2013-02-19 12:25:00,
2013-02-19 06:30:00,23.1,18.4,30.21,West,276,1.0,2.0,82,0.00,,,0.00,WeatherCatV1.02B3,2013-02-19 12:30:00,
2013-02-19 06:35:00,23.0,18.6,30.21,WSW,250,0.0,2.0,83,0.00,,,0.00,WeatherCatV1.02B3,2013-02-19 12:35:00,
2013-02-19 06:40:00,22.8,18.4,30.21,WSW,238,1.0,2.0,83,0.00,,,0.00,WeatherCatV1.02B3,2013-02-19 12:40:00,
2013-02-19 06:45:00,22.7,18.6,30.22,West,269,0.0,2.0,84,0.00,,,0.00,WeatherCatV1.02B3,2013-02-19 12:45:00,
2013-02-19 06:50:00,22.5,18.4,30.22,NW,326,0.0,1.0,84,0.00,,,0.00,WeatherCatV1.02B3,2013-02-19 12:50:00,
2013-02-19 06:55:00,22.5,18.4,30.22,West,264,0.0,1.0,84,0.00,,,0.00,WeatherCatV1.02B3,2013-02-19 12:55:00,
2013-02-19 07:00:00,22.4,18.3,30.22,NW,304,0.0,2.0,84,0.00,,,0.00,WeatherCatV1.02B3,2013-02-19 13:00:00,
2013-02-19 07:05:00,22.4,18.6,30.22,NW,304,0.0,1.0,85,0.00,,,0.00,WeatherCatV1.02B3,2013-02-19 13:05:00,
2013-02-19 07:10:00,22.4,18.3,30.22,WSW,242,2.0,5.0,84,0.00,,,0.00,WeatherCatV1.02B3,2013-02-19 13:10:00,
2013-02-19 07:15:00,22.4,18.3,30.22,SW,228,1.0,4.0,84,0.00,,,0.00,WeatherCatV1.02B3,2013-02-19 13:15:00,
2013-02-19 07:20:00,22.5,18.7,30.22,WNW,302,2.0,3.0,85,0.00,,,0.00,WeatherCatV1.02B3,2013-02-19 13:20:00,
2013-02-19 07:25:00,22.7,18.9,30.23,NW,324,4.0,6.0,85,0.00,,,0.00,WeatherCatV1.02B3,2013-02-19 13:25:00,
2013-02-19 07:30:00,23.3,19.2,30.23,NW,324,2.0,5.0,84,0.00,,,0.00,WeatherCatV1.02B3,2013-02-19 13:30:00,
2013-02-19 07:35:00,23.8,19.4,30.23,NW,304,4.0,8.0,83,0.00,,,0.00,WeatherCatV1.02B3,2013-02-19 13:35:00,
2013-02-19 07:40:00,24.4,20.0,30.23,West,281,2.0,5.0,83,0.00,,,0.00,WeatherCatV1.02B3,2013-02-19 13:40:00,
2013-02-19 07:45:00,25.0,20.3,30.23,NW,312,2.0,7.0,82,0.00,,,0.00,WeatherCatV1.02B3,2013-02-19 13:45:00,
2013-02-19 07:50:00,25.7,20.4,30.23,WNW,295,3.0,6.0,80,0.00,,,0.00,WeatherCatV1.02B3,2013-02-19 13:50:00,
2013-02-19 07:55:00,26.2,20.6,30.24,NW,311,3.0,7.0,79,0.00,,,0.00,WeatherCatV1.02B3,2013-02-19 13:55:00,
2013-02-19 08:00:00,26.7,20.8,30.24,West,267,6.0,7.0,78,0.00,,,0.00,WeatherCatV1.02B3,2013-02-19 14:00:00,
2013-02-19 08:05:00,27.2,21.3,30.24,West,277,4.0,6.0,78,0.00,,,0.00,WeatherCatV1.02B3,2013-02-19 14:05:00,
2013-02-19 08:10:00,27.7,21.1,30.24,NNW,339,6.0,11.0,76,0.00,,,0.00,WeatherCatV1.02B3,2013-02-19 14:10:00,
2013-02-19 08:15:00,28.1,21.5,30.24,West,275,3.0,11.0,76,0.00,,,0.00,WeatherCatV1.02B3,2013-02-19 14:15:00,
2013-02-19 08:20:00,28.6,21.4,30.25,North,5,6.0,10.0,74,0.00,,,0.00,WeatherCatV1.02B3,2013-02-19 14:20:00,
2013-02-19 08:25:00,28.9,21.0,30.25,NNW,342,3.0,11.0,72,0.00,,,0.00,WeatherCatV1.02B3,2013-02-19 14:25:00,
2013-02-19 08:30:00,29.3,21.1,30.25,WNW,291,4.0,13.0,71,0.00,,,0.00,WeatherCatV1.02B3,2013-02-19 14:30:00,
2013-02-19 08:35:00,29.6,21.4,30.26,WNW,293,6.0,10.0,71,0.00,,,0.00,WeatherCatV1.02B3,2013-02-19 14:35:00,
2013-02-19 08:40:00,30.0,21.8,30.26,NW,311,14.0,14.0,71,0.00,,,0.00,WeatherCatV1.02B3,2013-02-19 14:40:00,
2013-02-19 08:45:00,30.2,21.3,30.26,NNW,332,6.0,14.0,69,0.00,,,0.00,WeatherCatV1.02B3,2013-02-19 14:45:00,
2013-02-19 08:50:00,30.5,21.6,30.26,NNW,340,9.0,15.0,69,0.00,,,0.00,WeatherCatV1.02B3,2013-02-19 14:50:00,
2013-02-19 08:55:00,30.7,21.4,30.27,NW,309,9.0,16.0,68,0.00,,,0.00,WeatherCatV1.02B3,2013-02-19 14:55:00,
2013-02-19 09:00:00,30.8,21.9,30.27,NNW,329,8.0,11.0,69,0.00,,,0.00,WeatherCatV1.02B3,2013-02-19 15:00:00,
2013-02-19 09:05:00,31.2,22.2,30.27,West,280,9.0,10.0,69,0.00,,,0.00,WeatherCatV1.02B3,2013-02-19 15:05:00,
2013-02-19 09:10:00,31.6,21.9,30.27,NNW,335,12.0,14.0,67,0.00,,,0.00,WeatherCatV1.02B3,2013-02-19 15:10:00,
2013-02-19 09:15:00,31.7,21.7,30.27,North,350,8.0,9.0,66,0.00,,,0.00,WeatherCatV1.02B3,2013-02-19 15:15:00,
2013-02-19 09:20:00,32.1,21.7,30.28,NW,311,10.0,16.0,65,0.00,,,0.00,WeatherCatV1.02B3,2013-02-19 15:20:00,
2013-02-19 09:25:00,32.3,22.2,30.28,WNW,294,3.0,10.0,66,0.00,,,0.00,WeatherCatV1.02B3,2013-02-19 15:25:00,
2013-02-19 09:30:00,32.5,20.9,30.28,WNW,294,10.0,15.0,62,0.00,,,0.00,WeatherCatV1.02B3,2013-02-19 15:30:00,
2013-02-19 09:35:00,32.4,20.9,30.28,WNW,301,8.0,19.0,62,0.00,,,0.00,WeatherCatV1.02B3,2013-02-19 15:35:00,
2013-02-19 09:40:00,32.5,21.3,30.28,WNW,289,8.0,15.0,63,0.00,,,0.00,WeatherCatV1.02B3,2013-02-19 15:40:00,
2013-02-19 09:45:00,32.8,21.2,30.29,West,277,6.0,14.0,62,0.00,,,0.00,WeatherCatV1.02B3,2013-02-19 15:45:00,
2013-02-19 09:50:00,33.1,21.1,30.29,WNW,294,4.0,14.0,61,0.00,,,0.00,WeatherCatV1.02B3,2013-02-19 15:50:00,
2013-02-19 09:55:00,33.4,21.8,30.29,NW,311,8.0,12.0,62,0.00,,,0.00,WeatherCatV1.02B3,2013-02-19 15:55:00,
2013-02-19 10:00:00,33.5,21.1,30.29,WNW,301,6.0,11.0,60,0.00,,,0.00,WeatherCatV1.02B3,2013-02-19 16:00:00,
2013-02-19 10:05:00,33.8,21.0,30.29,WNW,298,9.0,12.0,59,0.00,,,0.00,WeatherCatV1.02B3,2013-02-19 16:05:00,
2013-02-19 10:10:00,33.9,20.7,30.29,NNW,327,10.0,14.0,58,0.00,,,0.00,WeatherCatV1.02B3,2013-02-19 16:10:00,
2013-02-19 10:15:00,34.3,21.5,30.29,NW,314,3.0,13.0,59,0.00,,,0.00,WeatherCatV1.02B3,2013-02-19 16:15:00,
2013-02-19 10:20:00,34.8,22.0,30.30,WNW,303,5.0,12.0,59,0.00,,,0.00,WeatherCatV1.02B3,2013-02-19 16:20:00,
2013-02-19 10:25:00,35.0,20.9,30.30,NW,312,10.0,21.0,56,0.00,,,0.00,WeatherCatV1.02B3,2013-02-19 16:25:00,
2013-02-19 10:30:00,35.1,21.0,30.30,NNW,342,13.0,17.0,56,0.00,,,0.00,WeatherCatV1.02B3,2013-02-19 16:30:00,
2013-02-19 10:35:00,35.2,19.4,30.30,NW,316,7.0,16.0,52,0.00,,,0.00,WeatherCatV1.02B3,2013-02-19 16:35:00,
2013-02-19 10:40:00,35.2,20.2,30.30,NW,311,7.0,17.0,54,0.00,,,0.00,WeatherCatV1.02B3,2013-02-19 16:40:00,
2013-02-19 10:45:00,35.3,20.3,30.30,NW,307,7.0,14.0,54,0.00,,,0.00,WeatherCatV1.02B3,2013-02-19 16:45:00,
2013-02-19 10:50:00,35.6,19.7,30.30,NNW,331,14.0,17.0,52,0.00,,,0.00,WeatherCatV1.02B3,2013-02-19 16:50:00,
2013-02-19 10:55:00,35.6,19.3,30.31,WNW,296,14.0,17.0,51,0.00,,,0.00,WeatherCatV1.02B3,2013-02-19 16:55:00,
2013-02-19 11:00:00,36.0,21.4,30.31,West,276,5.0,12.0,55,0.00,,,0.00,WeatherCatV1.02B3,2013-02-19 17:00:00,
2013-02-19 11:05:00,36.7,21.2,30.31,NW,317,10.0,12.0,53,0.00,,,0.00,WeatherCatV1.02B3,2013-02-19 17:05:00,
2013-02-19 11:10:00,37.3,20.4,30.31,WNW,293,9.0,17.0,50,0.00,,,0.00,WeatherCatV1.02B3,2013-02-19 17:10:00,
2013-02-19 11:15:00,37.6,21.1,30.31,NW,318,6.0,11.0,51,0.00,,,0.00,WeatherCatV1.02B3,2013-02-19 17:15:00,
2013-02-19 11:20:00,37.8,19.4,30.31,North,355,8.0,10.0,47,0.00,,,0.00,WeatherCatV1.02B3,2013-02-19 17:20:00,
2013-02-19 11:25:00,38.2,20.3,30.32,WSW,257,5.0,16.0,48,0.00,,,0.00,WeatherCatV1.02B3,2013-02-19 17:25:00,
2013-02-19 11:30:00,38.6,19.6,30.32,NW,312,12.0,14.0,46,0.00,,,0.00,WeatherCatV1.02B3,2013-02-19 17:30:00,
2013-02-19 11:35:00,38.7,18.2,30.32,WNW,298,8.0,14.0,43,0.00,,,0.00,WeatherCatV1.02B3,2013-02-19 17:35:00,
2013-02-19 11:40:00,38.8,18.8,30.32,West,275,4.0,16.0,44,0.00,,,0.00,WeatherCatV1.02B3,2013-02-19 17:40:00,
2013-02-19 11:45:00,38.9,18.9,30.32,NW,309,7.0,13.0,44,0.00,,,0.00,WeatherCatV1.02B3,2013-02-19 17:45:00,
2013-02-19 11:50:00,39.2,20.7,30.32,NW,311,11.0,14.0,47,0.00,,,0.00,WeatherCatV1.02B3,2013-02-19 17:50:00,
2013-02-19 11:55:00,39.3,19.2,30.32,NW,311,6.0,13.0,44,0.00,,,0.00,WeatherCatV1.02B3,2013-02-19 17:55:00,
2013-02-19 12:00:00,39.5,19.9,30.32,West,263,9.0,14.0,45,0.00,,,0.00,WeatherCatV1.02B3,2013-02-19 18:00:00,
2013-02-19 12:05:00,39.8,19.7,30.32,West,279,11.0,13.0,44,0.00,,,0.00,WeatherCatV1.02B3,2013-02-19 18:05:00,
2013-02-19 12:10:00,39.8,18.6,30.32,NW,309,9.0,11.0,42,0.00,,,0.00,WeatherCatV1.02B3,2013-02-19 18:10:00,
2013-02-19 12:15:00,39.8,19.1,30.33,WNW,296,9.0,14.0,43,0.00,,,0.00,WeatherCatV1.02B3,2013-02-19 18:15:00,
2013-02-19 12:20:00,39.7,17.4,30.33,West,271,5.0,8.0,40,0.00,,,0.00,WeatherCatV1.02B3,2013-02-19 18:20:00,
2013-02-19 12:25:00,40.0,18.8,30.33,WNW,284,5.0,9.0,42,0.00,,,0.00,WeatherCatV1.02B3,2013-02-19 18:25:00,
2013-02-19 12:30:00,40.3,17.9,30.33,West,281,8.0,11.0,40,0.00,,,0.00,WeatherCatV1.02B3,2013-02-19 18:30:00,
2013-02-19 12:35:00,40.7,18.9,30.33,West,279,8.0,8.0,41,0.00,,,0.00,WeatherCatV1.02B3,2013-02-19 18:35:00,
2013-02-19 12:40:00,41.1,19.2,30.33,NW,311,7.0,10.0,41,0.00,,,0.00,WeatherCatV1.02B3,2013-02-19 18:40:00,
2013-02-19 12:45:00,41.2,19.3,30.33,NNW,329,5.0,8.0,41,0.00,,,0.00,WeatherCatV1.02B3,2013-02-19 18:45:00,
2013-02-19 12:50:00,41.2,17.5,30.33,West,269,3.0,13.0,38,0.00,,,0.00,WeatherCatV1.02B3,2013-02-19 18:50:00,
2013-02-19 12:55:00,41.4,20.0,30.33,West,277,10.0,13.0,42,0.00,,,0.00,WeatherCatV1.02B3,2013-02-19 18:55:00,
2013-02-19 13:00:00,41.2,18.7,30.32,West,273,2.0,14.0,40,0.00,,,0.00,WeatherCatV1.02B3,2013-02-19 19:00:00,
2013-02-19 13:05:00,41.1,17.5,30.32,West,281,10.0,13.0,38,0.00,,,0.00,WeatherCatV1.02B3,2013-02-19 19:05:00,
2013-02-19 13:10:00,40.8,17.8,30.32,NNW,330,11.0,17.0,39,0.00,,,0.00,WeatherCatV1.02B3,2013-02-19 19:10:00,
2013-02-19 13:15:00,40.8,18.9,30.32,North,355,15.0,15.0,41,0.00,,,0.00,WeatherCatV1.02B3,2013-02-19 19:15:00,
2013-02-19 13:20:00,40.7,18.9,30.32,NNW,345,8.0,11.0,41,0.00,,,0.00,WeatherCatV1.02B3,2013-02-19 19:20:00,
2013-02-19 13:25:00,40.9,17.9,30.32,NW,311,7.0,11.0,39,0.00,,,0.00,WeatherCatV1.02B3,2013-02-19 19:25:00,
2013-02-19 13:30:00,41.0,18.5,30.32,NW,316,3.0,8.0,40,0.00,,,0.00,WeatherCatV1.02B3,2013-02-19 19:30:00,
2013-02-19 13:35:00,40.9,17.9,30.31,NNW,329,8.0,11.0,39,0.00,,,0.00,WeatherCatV1.02B3,2013-02-19 19:35:00,
2013-02-19 13:40:00,41.3,20.0,30.31,NNW,327,3.0,7.0,42,0.00,,,0.00,WeatherCatV1.02B3,2013-02-19 19:40:00,
2013-02-19 13:45:00,41.6,17.3,30.31,NW,323,12.0,14.0,37,0.00,,,0.00,WeatherCatV1.02B3,2013-02-19 19:45:00,
2013-02-19 13:50:00,41.7,17.4,30.31,WNW,293,9.0,13.0,37,0.00,,,0.00,WeatherCatV1.02B3,2013-02-19 19:50:00,
2013-02-19 13:55:00,41.5,18.4,30.31,NW,311,4.0,13.0,39,0.00,,,0.00,WeatherCatV1.02B3,2013-02-19 19:55:00,
2013-02-19 14:00:00,41.8,20.4,30.31,West,269,6.0,12.0,42,0.00,,,0.00,WeatherCatV1.02B3,2013-02-19 20:00:00,
2013-02-19 14:05:00,42.1,18.9,30.32,NW,304,4.0,11.0,39,0.00,,,0.00,WeatherCatV1.02B3,2013-02-19 20:05:00,
2013-02-19 14:10:00,42.1,18.3,30.32,NW,311,4.0,14.0,38,0.00,,,0.00,WeatherCatV1.02B3,2013-02-19 20:10:00,
2013-02-19 14:15:00,42.4,18.6,30.32,NNW,328,15.0,16.0,38,0.00,,,0.00,WeatherCatV1.02B3,2013-02-19 20:15:00,
2013-02-19 14:20:00,41.9,16.9,30.32,North,355,3.0,12.0,36,0.00,,,0.00,WeatherCatV1.02B3,2013-02-19 20:20:00,
2013-02-19 14:25:00,41.5,17.2,30.32,NW,314,6.0,12.0,37,0.00,,,0.00,WeatherCatV1.02B3,2013-02-19 20:25:00,
2013-02-19 14:30:00,41.5,18.4,30.32,WNW,292,8.0,13.0,39,0.00,,,0.00,WeatherCatV1.02B3,2013-02-19 20:30:00,
2013-02-19 14:35:00,41.6,17.3,30.32,NW,306,8.0,9.0,37,0.00,,,0.00,WeatherCatV1.02B3,2013-02-19 20:35:00,
2013-02-19 14:40:00,41.5,17.2,30.31,NW,315,7.0,8.0,37,0.00,,,0.00,WeatherCatV1.02B3,2013-02-19 20:40:00,
2013-02-19 14:45:00,41.7,18.6,30.32,West,267,1.0,6.0,39,0.00,,,0.00,WeatherCatV1.02B3,2013-02-19 20:45:00,
2013-02-19 14:50:00,42.0,18.9,30.32,NW,309,3.0,7.0,39,0.00,,,0.00,WeatherCatV1.02B3,2013-02-19 20:50:00,
2013-02-19 14:55:00,42.4,16.7,30.31,WSW,242,7.0,12.0,35,0.00,,,0.00,WeatherCatV1.02B3,2013-02-19 20:55:00,
2013-02-19 15:00:00,42.5,16.8,30.32,NW,320,8.0,11.0,35,0.00,,,0.00,WeatherCatV1.02B3,2013-02-19 21:00:00,
2013-02-19 15:05:00,42.6,16.9,30.32,NW,321,3.0,10.0,35,0.00,,,0.00,WeatherCatV1.02B3,2013-02-19 21:05:00,
2013-02-19 15:10:00,42.5,16.8,30.32,WNW,294,3.0,13.0,35,0.00,,,0.00,WeatherCatV1.02B3,2013-02-19 21:10:00,
2013-02-19 15:15:00,42.5,17.4,30.32,NW,314,6.0,11.0,36,0.00,,,0.00,WeatherCatV1.02B3,2013-02-19 21:15:00,
2013-02-19 15:20:00,42.3,16.0,30.31,West,267,7.0,13.0,34,0.00,,,0.00,WeatherCatV1.02B3,2013-02-19 21:20:00,
2013-02-19 15:25:00,42.2,17.2,30.32,SW,227,3.0,10.0,36,0.00,,,0.00,WeatherCatV1.02B3,2013-02-19 21:25:00,
2013-02-19 15:30:00,42.0,15.0,30.32,NW,304,6.0,13.0,33,0.00,,,0.00,WeatherCatV1.02B3,2013-02-19 21:30:00,
2013-02-19 15:35:00,41.8,16.2,30.32,WNW,289,6.0,10.0,35,0.00,,,0.00,WeatherCatV1.02B3,2013-02-19 21:35:00,
2013-02-19 15:40:00,41.6,15.3,30.32,WNW,285,3.0,10.0,34,0.00,,,0.00,WeatherCatV1.02B3,2013-02-19 21:40:00,
2013-02-19 15:45:00,41.6,15.3,30.32,WNW,294,11.0,16.0,34,0.00,,,0.00,WeatherCatV1.02B3,2013-02-19 21:45:00,
2013-02-19 15:50:00,41.5,15.9,30.32,WNW,299,2.0,8.0,35,0.00,,,0.00,WeatherCatV1.02B3,2013-02-19 21:50:00,
2013-02-19 15:55:00,41.5,15.2,30.32,West,260,5.0,13.0,34,0.00,,,0.00,WeatherCatV1.02B3,2013-02-19 21:55:00,
2013-02-19 16:00:00,41.3,15.1,30.32,NW,323,8.0,9.0,34,0.00,,,0.00,WeatherCatV1.02B3,2013-02-19 22:00:00,
2013-02-19 16:05:00,41.3,15.1,30.32,WNW,295,6.0,15.0,34,0.00,,,0.00,WeatherCatV1.02B3,2013-02-19 22:05:00,
2013-02-19 16:10:00,41.0,14.1,30.32,NNW,331,12.0,12.0,33,0.00,,,0.00,WeatherCatV1.02B3,2013-02-19 22:10:00,
2013-02-19 16:15:00,40.7,15.2,30.32,NW,324,8.0,8.0,35,0.00,,,0.00,WeatherCatV1.02B3,2013-02-19 22:15:00,
2013-02-19 16:20:00,40.6,14.5,30.32,NNW,328,5.0,8.0,34,0.00,,,0.00,WeatherCatV1.02B3,2013-02-19 22:20:00,
2013-02-19 16:25:00,40.7,15.8,30.32,NNW,331,11.0,11.0,36,0.00,,,0.00,WeatherCatV1.02B3,2013-02-19 22:25:00,
2013-02-19 16:30:00,40.6,14.5,30.31,WNW,285,5.0,16.0,34,0.00,,,0.00,WeatherCatV1.02B3,2013-02-19 22:30:00,
2013-02-19 16:35:00,40.4,14.3,30.31,NNW,329,8.0,12.0,34,0.00,,,0.00,WeatherCatV1.02B3,2013-02-19 22:35:00,
2013-02-19 16:40:00,40.1,14.0,30.31,WNW,302,7.0,10.0,34,0.00,,,0.00,WeatherCatV1.02B3,2013-02-19 22:40:00,
2013-02-19 16:45:00,39.8,14.4,30.31,NW,307,7.0,11.0,35,0.00,,,0.00,WeatherCatV1.02B3,2013-02-19 22:45:00,
2013-02-19 16:50:00,39.4,13.4,30.31,WNW,302,3.0,13.0,34,0.00,,,0.00,WeatherCatV1.02B3,2013-02-19 22:50:00,
2013-02-19 16:55:00,39.2,13.9,30.31,NW,313,11.0,11.0,35,0.00,,,0.00,WeatherCatV1.02B3,2013-02-19 22:55:00,
2013-02-19 17:00:00,38.9,14.2,30.31,NW,306,1.0,5.0,36,0.00,,,0.00,WeatherCatV1.02B3,2013-02-19 23:00:00,
2013-02-19 17:05:00,38.7,14.7,30.31,West,271,5.0,10.0,37,0.00,,,0.00,WeatherCatV1.02B3,2013-02-19 23:05:00,
2013-02-19 17:10:00,38.4,14.4,30.31,WNW,294,1.0,6.0,37,0.00,,,0.00,WeatherCatV1.02B3,2013-02-19 23:10:00,
2013-02-19 17:15:00,38.2,14.9,30.31,WNW,295,6.0,6.0,38,0.00,,,0.00,WeatherCatV1.02B3,2013-02-19 23:15:00,
2013-02-19 17:20:00,37.9,15.8,30.31,NW,309,2.0,5.0,40,0.00,,,0.00,WeatherCatV1.02B3,2013-02-19 23:20:00,
2013-02-19 17:25:00,37.7,15.6,30.31,NNW,342,5.0,8.0,40,0.00,,,0.00,WeatherCatV1.02B3,2013-02-19 23:25:00,
2013-02-19 17:30:00,37.4,15.3,30.31,NW,326,7.0,7.0,40,0.00,,,0.00,WeatherCatV1.02B3,2013-02-19 23:30:00,
2013-02-19 17:35:00,37.1,15.6,30.31,NW,318,2.0,7.0,41,0.00,,,0.00,WeatherCatV1.02B3,2013-02-19 23:35:00,
2013-02-19 17:40:00,36.9,15.4,30.30,West,279,2.0,3.0,41,0.00,,,0.00,WeatherCatV1.02B3,2013-02-19 23:40:00,
2013-02-19 17:45:00,36.6,15.7,30.30,NW,307,1.0,2.0,42,0.00,,,0.00,WeatherCatV1.02B3,2013-02-19 23:45:00,
2013-02-19 17:50:00,36.4,16.1,30.31,WSW,250,0.0,2.0,43,0.00,,,0.00,WeatherCatV1.02B3,2013-02-19 23:50:00,
2013-02-19 17:55:00,36.1,15.8,30.31,WSW,242,1.0,1.0,43,0.00,,,0.00,WeatherCatV1.02B3,2013-02-19 23:55:00,
2013-02-19 18:00:00,35.8,16.0,30.31,West,271,0.0,3.0,44,0.00,,,0.00,WeatherCatV1.02B3,2013-02-20 00:00:00,
2013-02-19 18:05:00,35.4,15.7,30.30,WNW,286,0.0,3.0,44,0.00,,,0.00,WeatherCatV1.02B3,2013-02-20 00:05:00,
2013-02-19 18:10:00,35.1,15.9,30.31,WNW,286,0.0,3.0,45,0.00,,,0.00,WeatherCatV1.02B3,2013-02-20 00:10:00,
2013-02-19 18:15:00,34.9,16.2,30.31,WNW,286,1.0,2.0,46,0.00,,,0.00,WeatherCatV1.02B3,2013-02-20 00:15:00,
2013-02-19 18:20:00,34.4,15.8,30.31,NW,323,0.0,2.0,46,0.00,,,0.00,WeatherCatV1.02B3,2013-02-20 00:20:00,
2013-02-19 18:25:00,34.1,16.5,30.31,NW,322,0.0,0.0,48,0.00,,,0.00,WeatherCatV1.02B3,2013-02-20 00:25:00,
2013-02-19 18:30:00,33.8,16.2,30.31,NW,322,0.0,0.0,48,0.00,,,0.00,WeatherCatV1.02B3,2013-02-20 00:30:00,
2013-02-19 18:35:00,33.6,16.0,30.31,NW,322,0.0,0.0,48,0.00,,,0.00,WeatherCatV1.02B3,2013-02-20 00:35:00,
2013-02-19 18:40:00,33.3,16.2,30.32,NW,322,0.0,0.0,49,0.00,,,0.00,WeatherCatV1.02B3,2013-02-20 00:40:00,
2013-02-19 18:45:00,32.8,15.3,30.32,NW,322,0.0,1.0,48,0.00,,,0.00,WeatherCatV1.02B3,2013-02-20 00:45:00,
2013-02-19 18:50:00,32.5,16.4,30.32,NW,322,0.0,0.0,51,0.00,,,0.00,WeatherCatV1.02B3,2013-02-20 00:50:00,
2013-02-19 18:55:00,32.1,16.9,30.32,NW,322,0.0,0.0,53,0.00,,,0.00,WeatherCatV1.02B3,2013-02-20 00:55:00,
2013-02-19 19:00:00,31.8,16.6,30.33,NW,322,0.0,0.0,53,0.00,,,0.00,WeatherCatV1.02B3,2013-02-20 01:00:00,
2013-02-19 19:05:00,31.5,17.2,30.33,NW,322,0.0,0.0,55,0.00,,,0.00,WeatherCatV1.02B3,2013-02-20 01:05:00,
2013-02-19 19:10:00,31.0,16.8,30.33,NW,322,0.0,0.0,55,0.00,,,0.00,WeatherCatV1.02B3,2013-02-20 01:10:00,
2013-02-19 19:15:00,30.4,17.0,30.33,NW,322,0.0,0.0,57,0.00,,,0.00,WeatherCatV1.02B3,2013-02-20 01:15:00,
2013-02-19 19:20:00,30.0,16.6,30.33,NW,322,0.0,0.0,57,0.00,,,0.00,WeatherCatV1.02B3,2013-02-20 01:20:00,
2013-02-19 19:25:00,29.6,16.3,30.34,NW,322,0.0,0.0,57,0.00,,,0.00,WeatherCatV1.02B3,2013-02-20 01:25:00,
2013-02-19 19:30:00,29.2,16.3,30.34,NW,322,0.0,0.0,58,0.00,,,0.00,WeatherCatV1.02B3,2013-02-20 01:30:00,
2013-02-19 19:35:00,28.8,16.3,30.35,NW,322,0.0,0.0,59,0.00,,,0.00,WeatherCatV1.02B3,2013-02-20 01:35:00,
2013-02-19 19:40:00,28.4,15.9,30.34,NW,322,0.0,0.0,59,0.00,,,0.00,WeatherCatV1.02B3,2013-02-20 01:40:00,
2013-02-19 19:45:00,28.0,15.5,30.35,NW,322,0.0,0.0,59,0.00,,,0.00,WeatherCatV1.02B3,2013-02-20 01:45:00,
2013-02-19 19:50:00,27.6,16.3,30.35,NW,322,0.0,0.0,62,0.00,,,0.00,WeatherCatV1.02B3,2013-02-20 01:50:00,
2013-02-19 19:55:00,27.2,16.3,30.35,NW,322,0.0,0.0,63,0.00,,,0.00,WeatherCatV1.02B3,2013-02-20 01:55:00,
2013-02-19 20:00:00,26.6,17.8,30.35,NW,322,0.0,0.0,69,0.00,,,0.00,WeatherCatV1.02B3,2013-02-20 02:00:00,
2013-02-19 20:05:00,26.2,17.8,30.34,NW,322,1.0,1.0,70,0.00,,,0.00,WeatherCatV1.02B3,2013-02-20 02:05:00,
2013-02-19 20:10:00,25.9,17.2,30.34,NW,322,0.0,0.0,69,0.00,,,0.00,WeatherCatV1.02B3,2013-02-20 02:10:00,
2013-02-19 20:15:00,25.6,17.2,30.33,NW,322,1.0,1.0,70,0.00,,,0.00,WeatherCatV1.02B3,2013-02-20 02:15:00,
2013-02-19 20:20:00,25.1,16.7,30.33,NW,322,0.0,1.0,70,0.00,,,0.00,WeatherCatV1.02B3,2013-02-20 02:20:00,
2013-02-19 20:25:00,24.8,16.8,30.33,NW,322,0.0,0.0,71,0.00,,,0.00,WeatherCatV1.02B3,2013-02-20 02:25:00,
2013-02-19 20:30:00,24.6,18.4,30.32,NW,322,0.0,0.0,77,0.00,,,0.00,WeatherCatV1.02B3,2013-02-20 02:30:00,
2013-02-19 20:35:00,24.5,18.3,30.32,NW,322,1.0,1.0,77,0.00,,,0.00,WeatherCatV1.02B3,2013-02-20 02:35:00,
2013-02-19 20:40:00,24.3,17.2,30.32,NW,322,0.0,1.0,74,0.00,,,0.00,WeatherCatV1.02B3,2013-02-20 02:40:00,
2013-02-19 20:45:00,24.0,16.6,30.32,NW,322,0.0,1.0,73,0.00,,,0.00,WeatherCatV1.02B3,2013-02-20 02:45:00,
2013-02-19 20:50:00,23.8,18.3,30.32,NW,322,0.0,0.0,79,0.00,,,0.00,WeatherCatV1.02B3,2013-02-20 02:50:00,
2013-02-19 20:55:00,23.6,17.8,30.33,NW,322,0.0,0.0,78,0.00,,,0.00,WeatherCatV1.02B3,2013-02-20 02:55:00,
2013-02-19 21:00:00,23.5,17.4,30.33,NW,322,0.0,0.0,77,0.00,,,0.00,WeatherCatV1.02B3,2013-02-20 03:00:00,
2013-02-19 21:05:00,23.4,17.0,30.33,NW,322,0.0,0.0,76,0.00,,,0.00,WeatherCatV1.02B3,2013-02-20 03:05:00,
2013-02-19 21:10:00,23.3,16.9,30.34,NW,322,0.0,0.0,76,0.00,,,0.00,WeatherCatV1.02B3,2013-02-20 03:10:00,
2013-02-19 21:15:00,23.1,17.0,30.34,NW,322,0.0,0.0,77,0.00,,,0.00,WeatherCatV1.02B3,2013-02-20 03:15:00,
2013-02-19 21:20:00,22.9,16.8,30.34,NW,322,0.0,0.0,77,0.00,,,0.00,WeatherCatV1.02B3,2013-02-20 03:20:00,
2013-02-19 21:25:00,22.8,17.0,30.35,NW,322,0.0,0.0,78,0.00,,,0.00,WeatherCatV1.02B3,2013-02-20 03:25:00,
2013-02-19 21:30:00,22.8,16.7,30.35,NW,322,0.0,0.0,77,0.00,,,0.00,WeatherCatV1.02B3,2013-02-20 03:30:00,
2013-02-19 21:35:00,22.6,15.9,30.35,NW,322,0.0,0.0,75,0.00,,,0.00,WeatherCatV1.02B3,2013-02-20 03:35:00,
2013-02-19 21:40:00,22.4,16.3,30.36,NW,322,0.0,0.0,77,0.00,,,0.00,WeatherCatV1.02B3,2013-02-20 03:40:00,
2013-02-19 21:45:00,22.4,16.3,30.36,NW,322,0.0,0.0,77,0.00,,,0.00,WeatherCatV1.02B3,2013-02-20 03:45:00,
2013-02-19 21:50:00,22.3,16.2,30.36,NW,322,0.0,0.0,77,0.00,,,0.00,WeatherCatV1.02B3,2013-02-20 03:50:00,
2013-02-19 21:55:00,22.1,16.6,30.36,NW,322,0.0,0.0,79,0.00,,,0.00,WeatherCatV1.02B3,2013-02-20 03:55:00,
2013-02-19 22:00:00,21.9,16.7,30.37,NW,322,0.0,0.0,80,0.00,,,0.00,WeatherCatV1.02B3,2013-02-20 04:00:00,
2013-02-19 22:05:00,21.7,16.8,30.37,NW,322,0.0,0.0,81,0.00,,,0.00,WeatherCatV1.02B3,2013-02-20 04:05:00,
2013-02-19 22:10:00,21.6,16.4,30.37,NW,322,0.0,0.0,80,0.00,,,0.00,WeatherCatV1.02B3,2013-02-20 04:10:00,
2013-02-19 22:15:00,21.6,16.4,30.37,NW,322,0.0,0.0,80,0.00,,,0.00,WeatherCatV1.02B3,2013-02-20 04:15:00,
2013-02-19 22:20:00,21.5,16.6,30.37,NW,322,0.0,0.0,81,0.00,,,0.00,WeatherCatV1.02B3,2013-02-20 04:20:00,
2013-02-19 22:25:00,21.4,16.5,30.36,NW,322,0.0,0.0,81,0.00,,,0.00,WeatherCatV1.02B3,2013-02-20 04:25:00,
2013-02-19 22:30:00,21.3,16.4,30.37,NW,322,0.0,0.0,81,0.00,,,0.00,WeatherCatV1.02B3,2013-02-20 04:30:00,
2013-02-19 22:35:00,21.1,16.2,30.37,NW,322,0.0,0.0,81,0.00,,,0.00,WeatherCatV1.02B3,2013-02-20 04:35:00,
2013-02-19 22:40:00,21.0,16.1,30.37,NW,322,0.0,0.0,81,0.00,,,0.00,WeatherCatV1.02B3,2013-02-20 04:40:00,
2013-02-19 22:45:00,20.9,16.3,30.37,NW,322,0.0,0.0,82,0.00,,,0.00,WeatherCatV1.02B3,2013-02-20 04:45:00,
2013-02-19 22:50:00,20.8,16.2,30.37,NW,322,0.0,0.0,82,0.00,,,0.00,WeatherCatV1.02B3,2013-02-20 04:50:00,
2013-02-19 22:55:00,20.8,16.2,30.37,NW,322,0.0,0.0,82,0.00,,,0.00,WeatherCatV1.02B3,2013-02-20 04:55:00,
2013-02-19 23:00:00,20.7,16.4,30.38,NW,322,0.0,0.0,83,0.00,,,0.00,WeatherCatV1.02B3,2013-02-20 05:00:00,
2013-02-19 23:05:00,20.7,16.4,30.37,NW,322,0.0,0.0,83,0.00,,,0.00,WeatherCatV1.02B3,2013-02-20 05:05:00,
2013-02-19 23:10:00,20.7,16.4,30.37,NW,322,0.0,0.0,83,0.00,,,0.00,WeatherCatV1.02B3,2013-02-20 05:10:00,
2013-02-19 23:15:00,20.6,16.3,30.37,NW,322,0.0,0.0,83,0.00,,,0.00,WeatherCatV1.02B3,2013-02-20 05:15:00,
2013-02-19 23:20:00,20.6,16.5,30.37,NW,322,0.0,0.0,84,0.00,,,0.00,WeatherCatV1.02B3,2013-02-20 05:20:00,
2013-02-19 23:25:00,20.5,16.2,30.37,NW,322,0.0,0.0,83,0.00,,,0.00,WeatherCatV1.02B3,2013-02-20 05:25:00,
2013-02-19 23:30:00,20.4,16.4,30.37,NW,322,0.0,0.0,84,0.00,,,0.00,WeatherCatV1.02B3,2013-02-20 05:30:00,
2013-02-19 23:35:00,20.4,16.1,30.37,NW,322,0.0,0.0,83,0.00,,,0.00,WeatherCatV1.02B3,2013-02-20 05:35:00,
2013-02-19 23:40:00,20.4,16.6,30.36,NW,322,0.0,1.0,85,0.00,,,0.00,WeatherCatV1.02B3,2013-02-20 05:40:00,
2013-02-19 23:45:00,20.5,16.7,30.36,NW,322,0.0,2.0,85,0.00,,,0.00,WeatherCatV1.02B3,2013-02-20 05:45:00,
2013-02-19 23:50:00,20.6,16.0,30.36,NNE,22,2.0,3.0,82,0.00,,,0.00,WeatherCatV1.02B3,2013-02-20 05:50:00,
2013-02-19 23:55:00,21.1,15.0,30.35,NNE,30,2.0,3.0,77,0.00,,,0.00,WeatherCatV1.02B3,2013-02-20 05:55:00,